Time;durP1;ratioP1;P1;durP2;ratioP2;P2;SDS_P1;SDS_P2;PMS_P1;PMS_P2;Temp;Humidity;BMP_temperature;BMP_pressure;BME280_temperature;BME280_humidity;BME280_pressure;Samples;Min_cycle;Max_cycle;Signal;HPM_P1;HPM_P2
2021/10/31 00:00:56;;;;;;;2.10;0.52;;;13.60;77.00;;;;;;5079659;28;20032;-69
2021/10/31 00:03:22;;;;;;;5.78;1.00;;;13.50;77.00;;;;;;5079423;28;20036;-70
2021/10/31 00:05:48;;;;;;;2.40;0.63;;;13.50;77.30;;;;;;5079436;28;20075;-69
2021/10/31 00:08:13;;;;;;;3.15;0.70;;;13.50;77.60;;;;;;5077831;28;20383;-70
2021/10/31 00:10:39;;;;;;;3.55;0.90;;;13.50;77.50;;;;;;5074964;28;20028;-69
2021/10/31 00:13:05;;;;;;;3.65;0.88;;;13.40;77.40;;;;;;5078072;28;20067;-70
2021/10/31 00:15:31;;;;;;;3.53;0.70;;;13.50;78.00;;;;;;5078568;28;20029;-70
2021/10/31 00:17:56;;;;;;;3.30;0.80;;;13.40;77.50;;;;;;5078957;28;20033;-70
2021/10/31 00:20:22;;;;;;;4.32;0.90;;;13.50;77.70;;;;;;5075753;28;20024;-69
2021/10/31 00:22:48;;;;;;;1.73;0.73;;;13.40;77.50;;;;;;5090684;28;20032;-70
2021/10/31 00:25:14;;;;;;;3.72;1.10;;;13.40;77.80;;;;;;5089562;28;20073;-69
2021/10/31 00:27:41;;;;;;;3.67;0.73;;;13.40;78.60;;;;;;5079764;28;20430;-69
2021/10/31 00:30:07;;;;;;;7.38;1.10;;;13.30;78.90;;;;;;5078797;28;20068;-69
2021/10/31 00:32:33;;;;;;;2.85;0.80;;;13.40;79.50;;;;;;5078921;28;20028;-69
2021/10/31 00:34:59;;;;;;;6.45;0.80;;;13.30;79.00;;;;;;5075356;28;20169;-69
2021/10/31 00:37:24;;;;;;;2.08;0.80;;;13.40;78.50;;;;;;5077508;28;20485;-69
2021/10/31 00:39:50;;;;;;;3.55;0.70;;;13.40;79.30;;;;;;5060685;28;20058;-70
2021/10/31 00:42:16;;;;;;;4.28;1.50;;;13.30;79.60;;;;;;5078598;28;20045;-69
2021/10/31 00:44:42;;;;;;;3.22;0.80;;;13.40;78.70;;;;;;5078675;28;20024;-69
2021/10/31 00:47:07;;;;;;;2.95;0.65;;;13.30;80.00;;;;;;5076829;28;20107;-70
2021/10/31 00:49:33;;;;;;;4.15;0.85;;;13.40;79.30;;;;;;5076506;28;20107;-69
2021/10/31 00:52:00;;;;;;;2.58;0.77;;;13.30;80.00;;;;;;5078564;28;20082;-69
2021/10/31 00:54:26;;;;;;;6.03;0.88;;;13.30;79.50;;;;;;5078229;28;20036;-70
2021/10/31 00:56:52;;;;;;;1.60;0.70;;;13.40;80.30;;;;;;5078475;28;20392;-69
2021/10/31 00:59:17;;;;;;;4.53;0.90;;;13.40;79.80;;;;;;5077466;28;20392;-69
2021/10/31 01:01:44;;;;;;;5.03;0.80;;;13.40;78.80;;;;;;5075010;28;20067;-69
2021/10/31 01:04:11;;;;;;;2.92;0.85;;;13.40;79.90;;;;;;5076996;28;20070;-70
2021/10/31 01:07:10;;;;;;;4.68;0.93;;;13.40;79.50;;;;;;5078153;28;20036;-69
2021/10/31 01:10:02;;;;;;;3.50;0.90;;;13.40;78.30;;;;;;5078222;28;20028;-69
2021/10/31 01:12:46;;;;;;;3.83;0.80;;;13.40;78.80;;;;;;5064239;28;20120;-69
2021/10/31 01:15:33;;;;;;;2.15;0.60;;;13.40;79.70;;;;;;5083013;28;20028;-69
2021/10/31 01:18:01;;;;;;;3.38;0.55;;;13.40;78.80;;;;;;5078064;28;20141;-70
2021/10/31 01:20:40;;;;;;;4.25;1.08;;;13.40;80.10;;;;;;5077974;28;20017;-69
2021/10/31 01:23:25;;;;;;;2.63;0.63;;;13.50;79.70;;;;;;5074988;28;20025;-69
2021/10/31 01:26:27;;;;;;;1.02;0.50;;;13.50;79.30;;;;;;5086868;28;20587;-70
2021/10/31 01:29:13;;;;;;;2.38;0.50;;;13.50;79.50;;;;;;4994721;28;20062;-69
2021/10/31 01:32:05;;;;;;;5.93;1.00;;;13.50;80.20;;;;;;5008665;28;20036;-69
2021/10/31 01:34:49;;;;;;;2.55;0.60;;;13.40;79.80;;;;;;5007643;28;20041;-69
2021/10/31 01:37:39;;;;;;;2.55;0.60;;;13.50;80.40;;;;;;5009948;28;20096;-69
2021/10/31 01:40:23;;;;;;;3.58;0.80;;;13.40;79.60;;;;;;5008854;28;20048;-69
2021/10/31 01:43:29;;;;;;;1.88;0.70;;;13.50;80.10;;;;;;5010135;28;20462;-69
2021/10/31 01:46:09;;;;;;;1.40;0.65;;;13.50;79.90;;;;;;4940207;29;20047;-70
2021/10/31 01:49:07;;;;;;;3.28;0.90;;;13.50;79.80;;;;;;4950052;28;20047;-69
2021/10/31 01:51:40;;;;;;;3.72;0.57;;;13.50;80.90;;;;;;4950840;29;20393;-70
2021/10/31 01:54:19;;;;;;;2.90;0.73;;;13.60;79.90;;;;;;4951554;29;20463;-69
2021/10/31 01:56:50;;;;;;;1.40;0.43;;;13.60;80.50;;;;;;4951596;29;22535;-69
2021/10/31 01:59:27;;;;;;;1.60;0.60;;;13.60;80.20;;;;;;4951749;29;20141;-69
2021/10/31 02:01:55;;;;;;;2.05;0.77;;;13.60;80.40;;;;;;4936598;29;20047;-69
2021/10/31 02:04:24;;;;;;;5.45;1.10;;;13.50;80.00;;;;;;4933924;28;20031;-69
2021/10/31 02:06:51;;;;;;;5.38;0.98;;;13.50;81.00;;;;;;4996163;28;20034;-70
2021/10/31 02:09:22;;;;;;;4.78;0.60;;;13.50;81.80;;;;;;4999297;28;20088;-70
2021/10/31 02:11:49;;;;;;;3.55;0.75;;;13.50;81.90;;;;;;5003381;28;20026;-70
2021/10/31 02:14:17;;;;;;;3.13;0.60;;;13.60;81.90;;;;;;5004387;28;20096;-69
2021/10/31 02:16:45;;;;;;;3.00;0.50;;;13.60;82.00;;;;;;5006885;28;20580;-69
2021/10/31 02:19:21;;;;;;;3.58;0.70;;;13.60;81.10;;;;;;4994727;28;20026;-69
2021/10/31 02:21:54;;;;;;;2.17;0.55;;;13.60;81.30;;;;;;5062107;28;20040;-69
2021/10/31 02:24:20;;;;;;;2.38;0.47;;;13.50;81.60;;;;;;5085172;28;20035;-69
2021/10/31 02:26:49;;;;;;;1.52;0.60;;;13.50;81.70;;;;;;5085549;28;20032;-69
2021/10/31 02:29:14;;;;;;;3.15;0.60;;;13.50;82.50;;;;;;5075579;28;20564;-69
2021/10/31 02:31:40;;;;;;;3.13;0.70;;;13.50;81.80;;;;;;5073885;28;20059;-70
2021/10/31 02:34:06;;;;;;;3.72;0.65;;;13.60;82.20;;;;;;5076332;28;20077;-69
2021/10/31 02:36:33;;;;;;;2.40;0.50;;;13.60;82.20;;;;;;5076738;28;20064;-69
2021/10/31 02:39:01;;;;;;;4.57;0.52;;;13.60;82.00;;;;;;5076871;28;20021;-69
2021/10/31 02:41:29;;;;;;;5.63;0.60;;;13.60;82.10;;;;;;5076691;28;20095;-69
2021/10/31 02:43:54;;;;;;;2.35;0.43;;;13.60;82.60;;;;;;5072690;28;20017;-70
2021/10/31 02:46:20;;;;;;;3.38;0.40;;;13.70;82.60;;;;;;5076019;28;20527;-70
2021/10/31 02:48:46;;;;;;;4.57;1.50;;;13.70;81.40;;;;;;5076385;28;20164;-70
2021/10/31 02:51:26;;;;;;;1.67;0.60;;;13.70;82.50;;;;;;5076672;28;20060;-70
2021/10/31 02:54:00;;;;;;;4.32;0.50;;;13.70;82.50;;;;;;5076831;28;20021;-69
2021/10/31 02:56:35;;;;;;;2.00;0.50;;;13.70;82.20;;;;;;5073917;28;20481;-69
2021/10/31 02:59:14;;;;;;;2.58;0.50;;;13.70;83.20;;;;;;5088187;28;20076;-70
2021/10/31 03:01:40;;;;;;;4.60;0.63;;;13.70;83.20;;;;;;5073809;28;20016;-69
2021/10/31 03:04:07;;;;;;;3.22;0.50;;;13.60;85.00;;;;;;5075767;28;20108;-69
2021/10/31 03:06:33;;;;;;;2.28;0.40;;;13.60;85.20;;;;;;5076654;28;20378;-69
2021/10/31 03:08:59;;;;;;;1.83;0.40;;;13.60;85.10;;;;;;5076535;28;20017;-69
2021/10/31 03:11:27;;;;;;;3.42;0.60;;;13.60;84.30;;;;;;5076708;28;20028;-70
2021/10/31 03:13:53;;;;;;;3.85;0.70;;;13.60;84.70;;;;;;5072225;28;20434;-69
2021/10/31 03:16:18;;;;;;;4.55;0.50;;;13.60;85.50;;;;;;5087435;28;20024;-70
2021/10/31 03:18:44;;;;;;;4.90;0.80;;;13.60;85.90;;;;;;5076742;28;20032;-69
2021/10/31 03:21:10;;;;;;;3.65;0.70;;;13.60;86.60;;;;;;5076564;28;20032;-69
2021/10/31 03:23:38;;;;;;;4.47;0.75;;;13.60;87.70;;;;;;5076543;28;20024;-69
2021/10/31 03:26:04;;;;;;;3.15;0.55;;;13.60;87.00;;;;;;5087508;28;20497;-69
2021/10/31 03:28:30;;;;;;;2.70;0.47;;;13.60;87.40;;;;;;5077627;28;20035;-70
2021/10/31 03:30:56;;;;;;;3.38;0.68;;;13.60;87.30;;;;;;5080260;28;20024;-69
2021/10/31 03:33:22;;;;;;;3.92;0.80;;;13.70;87.50;;;;;;5079814;28;20025;-69
2021/10/31 03:35:47;;;;;;;2.10;0.47;;;13.60;88.40;;;;;;5080133;28;20443;-69
2021/10/31 03:38:13;;;;;;;3.97;0.60;;;13.70;88.10;;;;;;5078543;28;20036;-69
2021/10/31 03:40:39;;;;;;;1.77;0.47;;;13.70;87.30;;;;;;5076742;28;20020;-69
2021/10/31 03:43:04;;;;;;;3.03;0.90;;;13.80;88.20;;;;;;5079317;28;20123;-70
2021/10/31 03:45:30;;;;;;;4.00;0.70;;;13.80;87.40;;;;;;5079734;28;20036;-70
2021/10/31 03:47:56;;;;;;;2.50;0.50;;;13.80;88.50;;;;;;5079310;28;20028;-69
2021/10/31 03:50:22;;;;;;;3.40;0.80;;;13.90;87.20;;;;;;5061538;28;20024;-69
2021/10/31 03:52:49;;;;;;;3.65;0.40;;;13.90;87.60;;;;;;5075518;28;20016;-69
2021/10/31 03:55:16;;;;;;;7.15;0.82;;;13.90;88.30;;;;;;5078949;28;20051;-69
2021/10/31 03:57:41;;;;;;;3.13;0.50;;;14.00;88.40;;;;;;5067986;28;20048;-69
2021/10/31 04:00:10;;;;;;;1.85;0.60;;;14.00;88.50;;;;;;5085178;28;20068;-70
2021/10/31 04:02:39;;;;;;;3.55;0.82;;;14.00;88.20;;;;;;5079083;28;20104;-70
2021/10/31 04:05:06;;;;;;;3.35;0.60;;;14.10;87.50;;;;;;5076581;28;20040;-69
2021/10/31 04:07:31;;;;;;;3.95;0.57;;;14.20;87.80;;;;;;5076867;28;20055;-70
2021/10/31 04:09:57;;;;;;;4.53;0.75;;;14.20;87.50;;;;;;5079352;28;20068;-70
2021/10/31 04:12:23;;;;;;;3.90;0.80;;;14.20;87.70;;;;;;5079240;28;20036;-69
2021/10/31 04:14:49;;;;;;;5.10;0.80;;;14.30;87.70;;;;;;5079395;28;20444;-69
2021/10/31 04:17:15;;;;;;;4.75;0.70;;;14.30;87.90;;;;;;5077534;28;20020;-70
2021/10/31 04:19:40;;;;;;;5.18;0.77;;;14.30;87.90;;;;;;5076059;28;20031;-69
2021/10/31 04:22:06;;;;;;;4.00;0.77;;;14.40;87.00;;;;;;5078681;28;20103;-69
2021/10/31 04:24:32;;;;;;;2.83;0.60;;;14.40;87.30;;;;;;5085284;28;20031;-70
2021/10/31 04:27:02;;;;;;;4.07;0.65;;;14.40;87.70;;;;;;5085999;28;20439;-69
2021/10/31 04:29:28;;;;;;;2.88;0.73;;;14.40;88.10;;;;;;5078978;28;20031;-69
2021/10/31 04:31:54;;;;;;;3.15;0.73;;;14.40;87.30;;;;;;5074475;28;20027;-70
2021/10/31 04:34:20;;;;;;;3.45;0.60;;;14.50;88.00;;;;;;5078233;28;20056;-69
2021/10/31 04:36:46;;;;;;;3.83;0.75;;;14.50;87.30;;;;;;5078850;28;20028;-70
2021/10/31 04:39:12;;;;;;;2.95;0.68;;;14.50;88.10;;;;;;5077777;28;20103;-70
2021/10/31 04:41:41;;;;;;;5.05;0.80;;;14.50;87.80;;;;;;5078536;28;20040;-69
2021/10/31 04:44:07;;;;;;;2.63;0.60;;;14.50;88.20;;;;;;5076100;28;20562;-70
2021/10/31 04:46:32;;;;;;;3.53;0.68;;;14.50;88.30;;;;;;5075902;28;20032;-69
2021/10/31 04:48:58;;;;;;;4.25;0.82;;;14.50;88.00;;;;;;5078365;28;20492;-70
2021/10/31 04:51:24;;;;;;;4.10;0.80;;;14.40;87.30;;;;;;5078636;28;20071;-69
2021/10/31 04:53:49;;;;;;;4.07;0.70;;;14.50;88.80;;;;;;5078690;28;20029;-70
2021/10/31 04:56:15;;;;;;;4.95;0.88;;;14.50;88.40;;;;;;5077246;28;20519;-69
2021/10/31 04:58:40;;;;;;;5.35;0.60;;;14.50;86.50;;;;;;5074818;28;20024;-69
2021/10/31 05:01:06;;;;;;;2.70;0.60;;;14.50;88.10;;;;;;5077962;28;20390;-69
2021/10/31 05:03:32;;;;;;;3.85;0.73;;;14.60;87.60;;;;;;5078268;28;20028;-70
2021/10/31 05:05:59;;;;;;;3.90;0.80;;;14.50;87.30;;;;;;5078093;28;20045;-69
2021/10/31 05:08:26;;;;;;;2.55;0.50;;;14.60;87.20;;;;;;5078334;28;20020;-70
2021/10/31 05:10:51;;;;;;;3.78;0.82;;;14.60;87.90;;;;;;5073935;28;20032;-70
2021/10/31 05:13:17;;;;;;;3.83;0.80;;;14.70;88.20;;;;;;5077312;28;20032;-69
2021/10/31 05:15:43;;;;;;;5.03;0.80;;;14.60;89.00;;;;;;5077994;28;20029;-69
2021/10/31 05:18:08;;;;;;;3.47;0.80;;;14.60;88.80;;;;;;5078034;28;20024;-69
2021/10/31 05:20:34;;;;;;;6.20;0.80;;;14.60;87.30;;;;;;5078020;28;20128;-70
2021/10/31 05:22:59;;;;;;;4.60;0.80;;;14.60;88.40;;;;;;5074593;28;20520;-69
2021/10/31 05:25:25;;;;;;;3.58;0.52;;;14.60;88.40;;;;;;5089312;28;20043;-70
2021/10/31 05:27:51;;;;;;;2.40;0.50;;;14.60;87.70;;;;;;5077799;28;20488;-69
2021/10/31 05:30:17;;;;;;;4.03;0.60;;;14.60;87.80;;;;;;5077798;28;20036;-70
2021/10/31 05:32:43;;;;;;;4.20;0.65;;;14.60;87.60;;;;;;5077949;28;20028;-70
2021/10/31 05:35:11;;;;;;;4.35;0.80;;;14.50;88.10;;;;;;5075581;28;20102;-69
2021/10/31 05:37:41;;;;;;;3.30;0.60;;;14.50;88.30;;;;;;5075054;28;20086;-70
2021/10/31 05:40:09;;;;;;;5.80;0.75;;;14.50;87.90;;;;;;5077040;28;20446;-69
2021/10/31 05:42:35;;;;;;;3.28;0.60;;;14.50;87.60;;;;;;5077040;28;20386;-70
2021/10/31 05:45:01;;;;;;;4.32;0.60;;;14.60;87.40;;;;;;5077462;28;20028;-70
2021/10/31 05:47:28;;;;;;;3.03;0.50;;;14.50;87.80;;;;;;5077475;28;20481;-70
2021/10/31 05:49:54;;;;;;;3.15;0.65;;;14.60;87.80;;;;;;5072897;28;20070;-70
2021/10/31 05:52:20;;;;;;;4.88;0.70;;;14.50;87.90;;;;;;5076635;28;20111;-70
2021/10/31 05:54:46;;;;;;;6.70;1.15;;;14.50;87.30;;;;;;5077322;28;20442;-70
2021/10/31 05:57:12;;;;;;;3.42;0.60;;;14.50;87.70;;;;;;5076954;28;20064;-69
2021/10/31 05:59:37;;;;;;;4.25;0.90;;;14.50;88.00;;;;;;5077350;28;20016;-69
2021/10/31 06:02:07;;;;;;;5.20;0.55;;;14.50;88.10;;;;;;5074213;28;20042;-69
2021/10/31 06:04:32;;;;;;;5.55;0.73;;;14.50;87.90;;;;;;5074533;28;20020;-69
2021/10/31 06:06:58;;;;;;;6.00;0.80;;;14.50;87.70;;;;;;5077143;28;20458;-69
2021/10/31 06:09:23;;;;;;;5.80;0.93;;;14.60;87.80;;;;;;5059225;28;20032;-70
2021/10/31 06:11:49;;;;;;;8.18;1.05;;;14.50;86.70;;;;;;5077348;28;20145;-69
2021/10/31 06:14:15;;;;;;;8.88;1.08;;;14.60;88.20;;;;;;5088669;28;20024;-70
2021/10/31 06:16:41;;;;;;;6.43;1.00;;;14.60;87.20;;;;;;5073990;28;20077;-70
2021/10/31 06:19:06;;;;;;;6.05;1.13;;;14.60;87.10;;;;;;5076491;28;20032;-70
2021/10/31 06:21:32;;;;;;;5.95;0.90;;;14.60;87.10;;;;;;5077159;28;20040;-69
2021/10/31 06:23:58;;;;;;;4.07;0.65;;;14.60;87.40;;;;;;5078616;28;20033;-69
2021/10/31 06:26:24;;;;;;;2.95;1.10;;;14.60;87.20;;;;;;5088162;28;20043;-70
2021/10/31 06:28:49;;;;;;;4.40;0.88;;;14.60;86.90;;;;;;5072716;28;20047;-70
2021/10/31 06:31:15;;;;;;;4.38;1.00;;;14.70;87.20;;;;;;5076513;28;20082;-70
2021/10/31 06:33:41;;;;;;;4.30;1.08;;;14.60;87.30;;;;;;5076977;28;20389;-69
2021/10/31 06:36:06;;;;;;;5.60;1.20;;;14.60;87.90;;;;;;5076790;28;20496;-70
2021/10/31 06:38:32;;;;;;;5.18;0.90;;;14.50;88.40;;;;;;5077056;28;20024;-69
2021/10/31 06:40:58;;;;;;;4.35;0.93;;;14.50;87.80;;;;;;5072644;28;20044;-70
2021/10/31 06:43:24;;;;;;;6.97;0.90;;;14.40;89.30;;;;;;5075487;28;20082;-69
2021/10/31 06:45:49;;;;;;;2.45;0.90;;;14.30;88.90;;;;;;5076959;28;20074;-70
2021/10/31 06:48:15;;;;;;;4.70;0.85;;;14.30;90.10;;;;;;5076855;28;20051;-69
2021/10/31 06:50:41;;;;;;;4.70;1.00;;;14.20;90.10;;;;;;5077014;28;20059;-69
2021/10/31 06:53:06;;;;;;;4.57;1.08;;;14.10;90.50;;;;;;5074081;28;20115;-69
2021/10/31 06:55:33;;;;;;;5.45;1.00;;;14.10;90.60;;;;;;5073994;28;20036;-69
2021/10/31 06:57:59;;;;;;;3.35;0.90;;;14.00;90.30;;;;;;5076467;28;20020;-69
2021/10/31 07:00:26;;;;;;;4.05;1.30;;;14.00;91.00;;;;;;5076754;28;20033;-69
2021/10/31 07:02:52;;;;;;;4.97;1.10;;;13.90;91.50;;;;;;5080221;28;20029;-69
2021/10/31 07:05:18;;;;;;;3.47;0.88;;;13.80;91.40;;;;;;5079520;28;20032;-69
2021/10/31 07:07:44;;;;;;;3.67;0.90;;;13.70;92.00;;;;;;5077196;28;20024;-69
2021/10/31 07:10:13;;;;;;;2.72;0.85;;;13.70;91.90;;;;;;5079757;28;20116;-69
2021/10/31 07:12:39;;;;;;;3.95;1.10;;;13.60;91.40;;;;;;5080552;28;20020;-69
2021/10/31 07:15:05;;;;;;;2.63;0.75;;;13.60;91.90;;;;;;5080257;28;20116;-69
2021/10/31 07:17:31;;;;;;;4.25;1.05;;;13.60;91.50;;;;;;5080436;28;20046;-69
2021/10/31 07:19:57;;;;;;;2.20;0.70;;;13.70;91.60;;;;;;5076276;28;22937;-69
2021/10/31 07:22:22;;;;;;;3.40;0.68;;;13.70;91.70;;;;;;5079084;28;20029;-69
2021/10/31 07:24:49;;;;;;;2.95;1.10;;;13.70;91.20;;;;;;5088437;28;20032;-69
2021/10/31 07:27:15;;;;;;;5.03;3.17;;;13.80;91.30;;;;;;5084729;28;20120;-69
2021/10/31 07:29:41;;;;;;;2.75;0.70;;;13.80;91.00;;;;;;5080059;28;20111;-69
2021/10/31 07:32:08;;;;;;;4.63;1.25;;;13.80;90.50;;;;;;5077663;28;20029;-69
2021/10/31 07:34:33;;;;;;;2.90;0.88;;;13.80;91.00;;;;;;5077526;28;20047;-69
2021/10/31 07:36:59;;;;;;;4.05;0.75;;;13.80;90.70;;;;;;5079749;28;20478;-69
2021/10/31 07:39:25;;;;;;;2.17;0.65;;;13.90;90.40;;;;;;5079697;28;20037;-69
2021/10/31 07:41:50;;;;;;;3.72;0.65;;;13.90;90.40;;;;;;5079698;28;20041;-69
2021/10/31 07:44:17;;;;;;;1.98;0.85;;;13.80;90.80;;;;;;5078673;28;20032;-69
2021/10/31 07:46:43;;;;;;;2.85;0.98;;;13.80;90.30;;;;;;5076278;28;20126;-69
2021/10/31 07:49:10;;;;;;;3.80;0.80;;;13.90;90.90;;;;;;5079262;28;20549;-69
2021/10/31 07:51:36;;;;;;;5.90;1.10;;;13.80;91.00;;;;;;5079738;28;20097;-69
2021/10/31 07:54:01;;;;;;;4.03;0.77;;;13.50;93.10;;;;;;5079316;28;20197;-69
2021/10/31 07:56:30;;;;;;;6.97;0.90;;;13.40;93.20;;;;;;5079508;28;20036;-69
2021/10/31 07:58:56;;;;;;;0.95;0.47;;;13.40;93.30;;;;;;5075710;28;20035;-69
2021/10/31 08:01:23;;;;;;;2.80;0.80;;;13.30;93.70;;;;;;5078637;28;20028;-69
2021/10/31 08:03:49;;;;;;;1.73;0.57;;;13.30;93.60;;;;;;5088532;28;20115;-69
2021/10/31 08:06:15;;;;;;;2.33;0.80;;;13.30;93.70;;;;;;5083828;28;20045;-69
2021/10/31 08:08:41;;;;;;;3.08;0.60;;;13.30;93.70;;;;;;5060532;28;20032;-69
2021/10/31 08:11:06;;;;;;;1.95;0.70;;;13.30;94.40;;;;;;5072746;28;20040;-69
2021/10/31 08:13:32;;;;;;;3.92;0.75;;;13.30;94.70;;;;;;5076993;28;20495;-69
2021/10/31 08:15:58;;;;;;;2.03;0.60;;;13.30;94.40;;;;;;5079082;28;20028;-69
2021/10/31 08:18:24;;;;;;;3.00;0.70;;;13.30;93.80;;;;;;5079163;28;20060;-69
2021/10/31 08:20:50;;;;;;;1.80;0.75;;;13.30;93.80;;;;;;5079293;28;20032;-69
2021/10/31 08:23:15;;;;;;;1.60;0.70;;;13.30;92.80;;;;;;5077450;28;20035;-69
2021/10/31 08:25:43;;;;;;;2.58;0.93;;;13.40;93.80;;;;;;5089277;28;20078;-69
2021/10/31 08:28:10;;;;;;;3.88;0.93;;;13.40;93.80;;;;;;5078508;28;20044;-69
2021/10/31 08:30:36;;;;;;;4.20;1.80;;;13.40;94.20;;;;;;5078877;28;20535;-69
2021/10/31 08:33:08;;;;;;;2.10;0.70;;;13.40;94.40;;;;;;5061465;28;20553;-69
2021/10/31 08:35:34;;;;;;;1.77;0.73;;;13.50;94.60;;;;;;5089266;28;20477;-69
2021/10/31 08:38:01;;;;;;;2.80;0.93;;;13.50;94.20;;;;;;5074973;28;20027;-69
2021/10/31 08:40:27;;;;;;;1.60;0.60;;;13.50;94.60;;;;;;5076700;28;20107;-69
2021/10/31 08:42:53;;;;;;;3.97;1.02;;;13.50;95.10;;;;;;5078795;28;20144;-70
2021/10/31 08:45:19;;;;;;;1.88;0.70;;;13.50;95.60;;;;;;5078576;28;20580;-69
2021/10/31 08:47:44;;;;;;;3.33;0.90;;;13.50;95.50;;;;;;5078795;28;20099;-69
2021/10/31 08:50:10;;;;;;;3.97;1.00;;;13.50;95.30;;;;;;5076551;28;20401;-69
2021/10/31 08:52:37;;;;;;;3.75;0.80;;;13.60;95.20;;;;;;5075684;28;20107;-69
2021/10/31 08:55:04;;;;;;;3.28;0.80;;;13.60;95.10;;;;;;5077822;28;20481;-70
2021/10/31 08:57:30;;;;;;;2.03;0.57;;;13.60;95.60;;;;;;5078550;28;20039;-69
2021/10/31 08:59:55;;;;;;;0.88;0.52;;;13.70;95.00;;;;;;5078337;28;20028;-69
2021/10/31 09:02:21;;;;;;;1.17;0.50;;;13.70;95.20;;;;;;5077686;28;20024;-69
2021/10/31 09:04:47;;;;;;;1.45;0.50;;;13.70;94.70;;;;;;5074456;28;20082;-69
2021/10/31 09:07:15;;;;;;;1.58;0.60;;;13.80;94.80;;;;;;5077557;28;20037;-69
2021/10/31 09:09:44;;;;;;;1.55;0.40;;;13.70;93.90;;;;;;5078235;28;20036;-69
2021/10/31 09:12:11;;;;;;;1.30;0.43;;;13.70;94.20;;;;;;5078193;28;20382;-69
2021/10/31 09:14:38;;;;;;;1.38;0.40;;;13.70;94.40;;;;;;5060283;28;20031;-69
2021/10/31 09:17:03;;;;;;;1.20;0.40;;;13.60;94.20;;;;;;5074814;28;20108;-69
2021/10/31 09:19:29;;;;;;;1.70;0.80;;;13.60;94.40;;;;;;5075627;28;20163;-69
2021/10/31 09:21:55;;;;;;;1.48;0.47;;;13.60;94.30;;;;;;5084936;28;20024;-69
2021/10/31 09:24:20;;;;;;;2.42;1.02;;;13.70;94.30;;;;;;5086044;28;20121;-69
2021/10/31 09:26:46;;;;;;;3.03;1.60;;;13.80;94.40;;;;;;5086317;28;20480;-69
2021/10/31 09:29:12;;;;;;;1.73;0.70;;;13.80;94.10;;;;;;5076025;28;20035;-69
2021/10/31 09:31:38;;;;;;;2.88;0.80;;;13.80;94.20;;;;;;5075280;28;20029;-69
2021/10/31 09:34:05;;;;;;;2.78;0.90;;;13.90;94.20;;;;;;5077273;28;20052;-69
2021/10/31 09:36:35;;;;;;;3.85;0.80;;;13.90;94.20;;;;;;5077256;28;20039;-69
2021/10/31 09:39:07;;;;;;;2.95;0.77;;;13.90;94.00;;;;;;5077535;28;20031;-69
2021/10/31 09:41:33;;;;;;;2.40;0.80;;;13.90;93.90;;;;;;5077510;28;20048;-69
2021/10/31 09:46:59;;;;;;;1.67;0.50;;;13.90;93.80;;;;;;5060666;28;20049;-69
2021/10/31 09:49:24;;;;;;;3.75;0.80;;;13.90;93.80;;;;;;5075810;28;20074;-69
2021/10/31 09:51:53;;;;;;;1.42;0.45;;;13.90;93.70;;;;;;5077598;28;20024;-69
2021/10/31 09:54:19;;;;;;;1.27;0.40;;;13.90;93.70;;;;;;5077280;28;20040;-69
2021/10/31 09:56:45;;;;;;;1.65;0.50;;;13.90;93.40;;;;;;5077353;28;20039;-69
2021/10/31 09:59:13;;;;;;;1.35;0.50;;;13.80;93.40;;;;;;5075237;28;20107;-69
2021/10/31 10:01:57;;;;;;;1.50;0.50;;;13.80;93.70;;;;;;5074716;28;20500;-69
2021/10/31 10:04:35;;;;;;;1.58;0.30;;;13.80;93.30;;;;;;5088429;28;20028;-69
2021/10/31 10:07:04;;;;;;;1.52;0.60;;;13.80;93.30;;;;;;5087327;28;20089;-69
2021/10/31 10:09:31;;;;;;;0.98;0.40;;;13.80;93.30;;;;;;5079761;28;20067;-69
2021/10/31 10:11:58;;;;;;;0.88;0.60;;;13.80;93.30;;;;;;5077257;28;20028;-69
2021/10/31 10:14:29;;;;;;;1.30;0.40;;;13.80;93.60;;;;;;5076887;28;20458;-69
2021/10/31 10:17:01;;;;;;;1.58;0.32;;;13.80;93.30;;;;;;5072902;28;20408;-69
2021/10/31 10:19:28;;;;;;;1.73;0.50;;;13.80;93.80;;;;;;5056860;28;20025;-69
2021/10/31 10:21:56;;;;;;;1.33;0.40;;;13.80;93.70;;;;;;5077347;28;20074;-69
2021/10/31 10:24:25;;;;;;;1.33;0.40;;;13.80;93.50;;;;;;5081850;28;20024;-69
2021/10/31 10:26:55;;;;;;;2.53;1.10;;;14.20;94.90;;;;;;5085258;28;20071;-69
2021/10/31 10:29:28;;;;;;;1.98;0.52;;;16.10;98.90;;;;;;5076308;28;20059;-69
2021/10/31 10:31:59;;;;;;;3.13;0.70;;;17.30;96.20;;;;;;5072599;28;20103;-69
2021/10/31 10:34:47;;;;;;;2.08;0.65;;;18.10;93.90;;;;;;5075190;28;20071;-69
2021/10/31 10:37:39;;;;;;;1.70;0.80;;;19.50;93.20;;;;;;5078830;28;20043;-69
2021/10/31 10:40:11;;;;;;;3.22;0.57;;;21.20;91.20;;;;;;5080514;28;20159;-70
2021/10/31 10:42:41;;;;;;;1.75;0.60;;;21.40;83.70;;;;;;5080702;28;20052;-69
2021/10/31 10:45:14;;;;;;;1.52;0.55;;;20.90;81.70;;;;;;5080962;28;20033;-69
2021/10/31 10:47:49;;;;;;;1.95;0.50;;;20.40;80.20;;;;;;5080681;28;20024;-69
2021/10/31 10:50:25;;;;;;;2.50;0.60;;;20.10;80.20;;;;;;5079458;28;20381;-69
2021/10/31 10:52:52;;;;;;;3.88;1.00;;;19.70;85.20;;;;;;5076541;28;20028;-69
2021/10/31 10:55:23;;;;;;;2.30;0.63;;;20.50;87.40;;;;;;5080205;28;20046;-69
2021/10/31 10:57:57;;;;;;;3.03;0.60;;;20.50;80.10;;;;;;5080696;28;20040;-69
2021/10/31 11:00:37;;;;;;;3.70;1.00;;;19.70;78.70;;;;;;5080760;28;20024;-69
2021/10/31 11:03:13;;;;;;;4.13;0.63;;;19.20;81.40;;;;;;5062410;28;20543;-69
2021/10/31 11:05:42;;;;;;;1.92;0.70;;;18.40;79.60;;;;;;5080618;28;20036;-69
2021/10/31 11:08:20;;;;;;;3.08;0.70;;;17.70;80.90;;;;;;5078106;28;20029;-69
2021/10/31 11:10:55;;;;;;;3.35;0.73;;;17.10;82.70;;;;;;5076823;28;20020;-69
2021/10/31 11:13:26;;;;;;;2.85;0.70;;;16.70;83.70;;;;;;5091697;28;20040;-69
2021/10/31 11:15:53;;;;;;;6.45;1.27;;;16.40;83.60;;;;;;5074780;28;20078;-69
2021/10/31 11:18:19;;;;;;;6.78;0.82;;;16.20;86.10;;;;;;5084684;28;20114;-69
2021/10/31 11:20:47;;;;;;;4.47;1.02;;;16.20;86.40;;;;;;5089239;28;20091;-69
2021/10/31 11:23:17;;;;;;;3.20;0.70;;;16.40;86.50;;;;;;5078512;28;20036;-69
2021/10/31 11:25:44;;;;;;;3.50;1.00;;;17.00;89.70;;;;;;5090461;28;20031;-69
2021/10/31 11:28:13;;;;;;;3.78;1.10;;;17.90;88.20;;;;;;5079672;28;20029;-69
2021/10/31 11:30:40;;;;;;;5.95;0.90;;;19.20;86.10;;;;;;5079687;28;20075;-69
2021/10/31 11:33:08;;;;;;;3.95;0.95;;;20.00;81.00;;;;;;5079943;28;20037;-69
2021/10/31 11:35:35;;;;;;;5.13;1.05;;;19.70;75.90;;;;;;5080105;28;20374;-69
2021/10/31 11:38:05;;;;;;;6.63;1.13;;;19.10;74.80;;;;;;5076441;28;20024;-69
2021/10/31 11:40:32;;;;;;;5.13;1.25;;;20.70;87.20;;;;;;5077311;28;20115;-70
2021/10/31 11:43:00;;;;;;;4.68;1.10;;;22.10;74.80;;;;;;5079615;28;20090;-70
2021/10/31 11:45:32;;;;;;;4.72;0.90;;;22.80;72.30;;;;;;5079319;28;20040;-70
2021/10/31 11:48:16;;;;;;;3.73;1.00;;;23.50;68.40;;;;;;5079323;28;20056;-70
2021/10/31 11:51:04;;;;;;;3.65;0.95;;;24.90;73.70;;;;;;5079833;28;20273;-71
2021/10/31 11:53:30;;;;;;;6.38;1.00;;;25.90;61.70;;;;;;5079657;28;20086;-71
2021/10/31 11:56:03;;;;;;;3.72;1.08;;;26.00;59.60;;;;;;5075400;28;20100;-70
2021/10/31 11:58:32;;;;;;;5.35;1.10;;;25.40;55.40;;;;;;5077207;28;20028;-71
2021/10/31 12:00:59;;;;;;;5.05;1.23;;;25.30;56.20;;;;;;5089061;28;20107;-70
2021/10/31 12:03:47;;;;;;;4.43;1.15;;;25.60;58.50;;;;;;5082746;28;20029;-71
2021/10/31 12:06:16;;;;;;;4.55;0.90;;;25.40;60.90;;;;;;5079294;28;20040;-71
2021/10/31 12:08:47;;;;;;;3.35;1.15;;;24.40;55.70;;;;;;5079230;28;20047;-71
2021/10/31 12:11:14;;;;;;;4.78;1.02;;;23.40;58.20;;;;;;5077702;28;20436;-71
2021/10/31 12:13:48;;;;;;;4.85;1.15;;;22.90;55.00;;;;;;5076079;28;20366;-70
2021/10/31 12:16:18;;;;;;;5.65;1.48;;;21.70;57.40;;;;;;5078671;28;20078;-70
2021/10/31 12:18:56;;;;;;;4.70;1.02;;;20.90;59.20;;;;;;5079130;28;20021;-70
2021/10/31 12:21:26;;;;;;;5.70;1.20;;;20.20;61.70;;;;;;5079096;28;20500;-71
2021/10/31 12:23:59;;;;;;;5.30;1.75;;;19.60;62.00;;;;;;5079680;28;20017;-71
2021/10/31 12:26:31;;;;;;;7.72;1.35;;;19.50;65.00;;;;;;5090780;28;20115;-70
2021/10/31 12:29:17;;;;;;;5.45;1.10;;;19.30;63.00;;;;;;5074844;28;20048;-70
2021/10/31 12:32:14;;;;;;;5.53;1.30;;;19.10;65.90;;;;;;5075677;28;20036;-71
2021/10/31 12:34:40;;;;;;;3.78;1.35;;;19.20;62.40;;;;;;5090742;28;20105;-71
2021/10/31 12:37:24;;;;;;;6.20;1.00;;;19.30;65.50;;;;;;5078306;28;20417;-70
2021/10/31 12:39:53;;;;;;;7.72;1.30;;;19.40;65.00;;;;;;5087711;28;20036;-70
2021/10/31 12:42:29;;;;;;;7.53;1.58;;;19.30;62.90;;;;;;5082784;28;20045;-70
2021/10/31 12:45:15;;;;;;;4.22;1.17;;;19.20;63.60;;;;;;5078118;28;20584;-70
2021/10/31 12:47:53;;;;;;;5.38;1.10;;;19.40;63.60;;;;;;5078664;28;20434;-70
2021/10/31 12:50:28;;;;;;;5.63;1.20;;;19.70;63.40;;;;;;5077673;28;20095;-70
2021/10/31 12:53:11;;;;;;;4.50;1.00;;;20.30;62.40;;;;;;5074483;28;20031;-71
2021/10/31 12:55:42;;;;;;;6.05;1.00;;;20.90;63.50;;;;;;5090258;28;20066;-71
2021/10/31 12:58:10;;;;;;;3.17;0.90;;;21.30;60.50;;;;;;5073002;28;20056;-71
2021/10/31 13:00:43;;;;;;;3.35;1.40;;;21.80;60.70;;;;;;5077991;28;20393;-71